createdAt,value
2017-08-29T00:01:24.544Z,18.40
2017-08-29T00:03:50.803Z,18.50
2017-08-29T00:06:17.083Z,18.50
2017-08-29T00:08:43.419Z,18.30
2017-08-29T00:11:09.705Z,18.20
2017-08-29T00:13:36.057Z,18.10
2017-08-29T00:16:02.355Z,18.10
2017-08-29T00:18:28.687Z,18.00
2017-08-29T00:20:54.972Z,18.00
2017-08-29T00:23:21.331Z,17.90
2017-08-29T00:25:47.656Z,17.90
2017-08-29T00:28:13.999Z,17.90
2017-08-29T00:30:40.295Z,17.90
2017-08-29T00:33:06.597Z,17.80
2017-08-29T00:35:33.078Z,17.80
2017-08-29T00:37:59.389Z,17.80
2017-08-29T00:40:25.740Z,17.70
2017-08-29T00:42:52.056Z,17.70
2017-08-29T00:45:18.357Z,17.70
2017-08-29T00:47:44.701Z,17.70
2017-08-29T00:50:11.042Z,17.70
2017-08-29T00:52:37.328Z,17.70
2017-08-29T00:55:03.653Z,17.60
2017-08-29T00:57:29.920Z,17.60
2017-08-29T00:59:56.232Z,17.50
2017-08-29T01:02:22.544Z,17.50
2017-08-29T01:04:48.907Z,17.60
2017-08-29T01:07:15.220Z,17.60
2017-08-29T01:09:41.696Z,17.60
2017-08-29T01:12:07.996Z,17.50
2017-08-29T01:14:34.279Z,17.50
2017-08-29T01:17:00.608Z,17.50
2017-08-29T01:19:26.898Z,17.60
2017-08-29T01:21:53.248Z,17.60
2017-08-29T01:24:19.543Z,17.50
2017-08-29T01:26:45.838Z,17.50
2017-08-29T01:29:12.231Z,17.40
2017-08-29T01:31:38.544Z,17.40
2017-08-29T01:34:04.825Z,17.30
2017-08-29T01:36:31.113Z,17.30
2017-08-29T01:38:57.539Z,17.30
2017-08-29T01:41:23.848Z,17.30
2017-08-29T01:43:50.180Z,17.20
2017-08-29T01:46:16.488Z,17.20
2017-08-29T01:48:42.811Z,17.20
2017-08-29T01:51:09.113Z,17.10
2017-08-29T01:53:35.412Z,17.10
2017-08-29T01:56:01.699Z,17.10
2017-08-29T01:58:27.996Z,17.20
2017-08-29T02:00:54.316Z,17.20
2017-08-29T02:03:20.611Z,17.20
2017-08-29T02:05:46.914Z,17.20
2017-08-29T02:08:13.490Z,17.40
2017-08-29T02:10:39.781Z,17.60
2017-08-29T02:13:06.800Z,17.70
2017-08-29T02:15:33.209Z,17.70
2017-08-29T02:17:59.546Z,17.60
2017-08-29T02:20:25.853Z,17.50
2017-08-29T02:22:52.205Z,17.30
2017-08-29T02:25:18.485Z,17.20
2017-08-29T02:27:44.795Z,17.20
2017-08-29T02:30:11.102Z,17.10
2017-08-29T02:32:37.404Z,17.10
2017-08-29T02:35:03.733Z,17.10
2017-08-29T02:37:30.044Z,17.00
2017-08-29T02:39:56.334Z,17.00
2017-08-29T02:42:22.649Z,16.90
2017-08-29T02:44:48.937Z,16.90
2017-08-29T02:47:15.256Z,16.90
2017-08-29T02:49:41.608Z,16.90
2017-08-29T02:52:07.939Z,16.90
2017-08-29T02:54:34.231Z,16.80
2017-08-29T02:57:00.540Z,16.80
2017-08-29T02:59:26.832Z,16.80
2017-08-29T03:01:53.122Z,16.70
2017-08-29T03:04:19.448Z,16.70
2017-08-29T03:06:45.728Z,16.80
2017-08-29T03:09:12.099Z,16.70
2017-08-29T03:11:38.448Z,16.70
2017-08-29T03:14:05.540Z,16.60
2017-08-29T03:16:31.815Z,16.60
2017-08-29T03:18:58.087Z,16.70
2017-08-29T03:21:24.372Z,16.60
2017-08-29T03:23:50.668Z,16.60
2017-08-29T03:26:17.004Z,16.60
2017-08-29T03:28:43.275Z,16.50
2017-08-29T03:31:09.617Z,16.50
2017-08-29T03:33:35.924Z,16.50
2017-08-29T03:36:02.256Z,16.40
2017-08-29T03:38:28.572Z,16.40
2017-08-29T03:40:54.851Z,16.30
2017-08-29T03:43:21.164Z,16.20
2017-08-29T03:45:47.456Z,16.20
2017-08-29T03:48:13.765Z,16.10
2017-08-29T03:50:40.048Z,16.10
2017-08-29T03:53:07.077Z,16.10
2017-08-29T03:55:33.528Z,16.10
2017-08-29T03:57:59.826Z,16.10
2017-08-29T04:00:26.127Z,16.10
2017-08-29T04:02:52.420Z,16.10
2017-08-29T04:05:18.749Z,16.10
2017-08-29T04:07:45.037Z,16.10
2017-08-29T04:10:11.359Z,16.10
2017-08-29T04:12:37.695Z,16.10
2017-08-29T04:15:03.968Z,16.00
2017-08-29T04:17:30.283Z,16.00
2017-08-29T04:19:56.561Z,16.00
2017-08-29T04:22:22.885Z,16.00
2017-08-29T04:24:49.192Z,16.00
2017-08-29T04:27:15.467Z,15.90
2017-08-29T04:29:41.783Z,15.90
2017-08-29T04:32:08.076Z,15.90
2017-08-29T04:34:34.421Z,15.90
2017-08-29T04:37:00.736Z,15.90
2017-08-29T04:39:27.036Z,15.90
2017-08-29T04:41:53.428Z,16.00
2017-08-29T04:44:19.740Z,16.00
2017-08-29T04:46:46.076Z,16.00
2017-08-29T04:49:12.355Z,16.00
2017-08-29T04:51:38.655Z,16.00
2017-08-29T04:54:05.102Z,16.00
2017-08-29T04:56:31.480Z,16.10
2017-08-29T04:58:57.836Z,16.20
2017-08-29T05:01:24.172Z,16.30
2017-08-29T05:03:50.465Z,16.30
2017-08-29T05:06:16.761Z,16.40
2017-08-29T05:08:44.074Z,16.50
2017-08-29T05:11:10.364Z,16.60
2017-08-29T05:13:36.631Z,16.60
2017-08-29T05:16:02.960Z,16.70
2017-08-29T05:18:29.319Z,16.80
2017-08-29T05:20:55.641Z,16.90
2017-08-29T05:23:21.972Z,17.00
2017-08-29T05:25:48.281Z,17.10
2017-08-29T05:28:14.547Z,17.30
2017-08-29T05:30:40.844Z,17.50
2017-08-29T05:33:07.176Z,18.20
2017-08-29T05:35:33.635Z,19.70
2017-08-29T05:37:59.952Z,21.50
2017-08-29T05:40:26.283Z,23.00
2017-08-29T05:42:52.620Z,24.50
2017-08-29T05:45:18.928Z,25.90
2017-08-29T05:47:45.203Z,27.10
2017-08-29T05:50:11.532Z,28.10
2017-08-29T05:52:37.832Z,29.10
2017-08-29T05:55:04.130Z,30.10
2017-08-29T05:57:30.456Z,30.90
2017-08-29T05:59:56.758Z,31.60
2017-08-29T06:02:23.047Z,32.30
2017-08-29T06:04:49.309Z,32.60
2017-08-29T06:07:15.652Z,33.00
2017-08-29T06:09:41.955Z,33.60
2017-08-29T06:12:08.260Z,34.20
2017-08-29T06:14:34.639Z,34.90
2017-08-29T06:17:01.016Z,35.40
2017-08-29T06:19:27.427Z,35.80
2017-08-29T06:21:53.748Z,36.00
2017-08-29T06:24:20.072Z,36.20
2017-08-29T06:26:46.367Z,36.40
2017-08-29T06:29:12.756Z,36.90
2017-08-29T06:31:39.111Z,37.30
2017-08-29T06:34:05.398Z,37.90
2017-08-29T06:36:31.704Z,38.60
2017-08-29T06:38:58.088Z,39.20
2017-08-29T06:41:24.419Z,39.70
2017-08-29T06:43:50.723Z,39.80
2017-08-29T06:46:17.059Z,40.30
2017-08-29T06:48:43.385Z,40.60
2017-08-29T06:51:10.408Z,40.90
2017-08-29T06:53:36.795Z,40.80
2017-08-29T06:56:03.071Z,41.40
2017-08-29T06:58:29.364Z,41.70
2017-08-29T07:00:55.827Z,41.80
2017-08-29T07:03:22.116Z,42.30
2017-08-29T07:05:48.444Z,42.90
2017-08-29T07:08:14.767Z,43.30
2017-08-29T07:10:41.055Z,43.80
2017-08-29T07:13:07.364Z,44.20
2017-08-29T07:15:33.634Z,44.40
2017-08-29T07:17:59.916Z,44.70
2017-08-29T07:20:26.220Z,44.90
2017-08-29T07:22:52.595Z,45.00
2017-08-29T07:25:18.891Z,45.30
2017-08-29T07:27:45.152Z,45.80
2017-08-29T07:30:11.456Z,46.00
2017-08-29T07:32:37.782Z,46.20
2017-08-29T07:35:04.068Z,46.30
2017-08-29T07:37:30.632Z,46.80
2017-08-29T07:39:56.977Z,47.10
2017-08-29T07:42:23.329Z,47.40
2017-08-29T07:44:49.797Z,47.50
2017-08-29T07:47:16.136Z,47.90
2017-08-29T07:49:42.456Z,48.40
2017-08-29T07:52:08.767Z,48.50
2017-08-29T07:54:35.075Z,48.70
2017-08-29T07:57:01.357Z,48.90
2017-08-29T07:59:27.731Z,49.00
2017-08-29T08:01:54.042Z,49.40
2017-08-29T08:04:20.362Z,49.80
2017-08-29T08:06:46.657Z,49.80
2017-08-29T08:09:12.984Z,50.10
2017-08-29T08:11:39.306Z,50.40
2017-08-29T08:14:05.617Z,50.30
2017-08-29T08:16:31.925Z,50.00
2017-08-29T08:18:58.229Z,50.30
2017-08-29T08:21:24.546Z,50.50
2017-08-29T08:23:50.984Z,50.00
2017-08-29T08:26:17.304Z,49.70
2017-08-29T08:28:43.639Z,49.30
2017-08-29T08:31:09.943Z,48.60
2017-08-29T08:33:36.279Z,48.70
2017-08-29T08:36:02.566Z,48.30
2017-08-29T08:38:28.833Z,48.30
2017-08-29T08:40:55.152Z,47.90
2017-08-29T08:43:21.443Z,47.20
2017-08-29T08:45:47.768Z,46.50
2017-08-29T08:48:14.136Z,46.00
2017-08-29T08:50:40.480Z,45.30
2017-08-29T08:53:06.800Z,44.90
2017-08-29T08:55:33.298Z,44.50
2017-08-29T08:57:59.702Z,44.40
2017-08-29T09:00:25.983Z,44.30
2017-08-29T09:02:52.317Z,43.90
2017-08-29T09:05:18.597Z,44.00
2017-08-29T09:07:44.916Z,43.80
2017-08-29T09:10:11.253Z,43.80
2017-08-29T09:12:37.528Z,43.60
2017-08-29T09:15:03.840Z,43.50
2017-08-29T09:17:30.176Z,43.30
2017-08-29T09:19:56.488Z,43.20
2017-08-29T09:22:22.802Z,43.50
2017-08-29T09:24:49.096Z,43.60
2017-08-29T09:27:15.388Z,43.10
2017-08-29T09:29:41.687Z,42.90
2017-08-29T09:32:08.055Z,42.70
2017-08-29T09:34:34.397Z,41.90
2017-08-29T09:37:00.711Z,41.30
2017-08-29T09:39:27.038Z,41.40
2017-08-29T09:41:53.316Z,41.20
2017-08-29T09:44:19.632Z,41.80
2017-08-29T09:46:45.958Z,41.50
2017-08-29T09:49:12.228Z,40.60
2017-08-29T09:51:38.563Z,39.90
2017-08-29T09:54:04.868Z,38.60
2017-08-29T09:56:31.192Z,37.40
2017-08-29T09:58:57.488Z,36.00
2017-08-29T10:01:23.760Z,34.40
2017-08-29T10:03:50.064Z,33.30
2017-08-29T10:06:16.362Z,32.50
2017-08-29T10:08:42.681Z,31.50
2017-08-29T10:11:08.995Z,30.70
2017-08-29T10:13:35.277Z,30.00
2017-08-29T10:16:01.614Z,29.70
2017-08-29T10:18:27.921Z,29.60
2017-08-29T10:20:54.236Z,29.30
2017-08-29T10:23:20.833Z,29.00
2017-08-29T10:25:47.161Z,28.80
2017-08-29T10:28:13.477Z,28.70
2017-08-29T10:30:39.937Z,28.50
2017-08-29T10:33:06.253Z,28.40
2017-08-29T10:35:32.547Z,28.30
2017-08-29T10:37:58.858Z,28.10
2017-08-29T10:40:25.194Z,28.10
2017-08-29T10:42:51.692Z,28.20
2017-08-29T10:45:18.003Z,28.00
2017-08-29T10:47:44.352Z,28.00
2017-08-29T10:50:10.635Z,27.90
2017-08-29T10:52:36.954Z,27.80
2017-08-29T10:55:03.259Z,27.90
2017-08-29T10:57:29.545Z,27.90
2017-08-29T10:59:55.867Z,27.90
2017-08-29T11:02:22.148Z,27.80
2017-08-29T11:04:48.481Z,27.70
2017-08-29T11:07:15.519Z,27.60
2017-08-29T11:09:41.870Z,27.60
2017-08-29T11:12:08.191Z,27.60
2017-08-29T11:14:34.470Z,27.60
2017-08-29T11:17:00.768Z,27.50
2017-08-29T11:19:27.068Z,27.50
2017-08-29T11:21:53.347Z,27.50
2017-08-29T11:24:19.672Z,27.50
2017-08-29T11:26:46.001Z,27.50
2017-08-29T11:29:12.332Z,27.50
2017-08-29T11:31:38.608Z,27.50
2017-08-29T11:34:04.973Z,27.50
2017-08-29T11:36:31.240Z,27.60
2017-08-29T11:38:57.563Z,27.70
2017-08-29T11:41:23.862Z,27.80
2017-08-29T11:43:50.180Z,27.80
2017-08-29T11:46:16.497Z,27.80
2017-08-29T11:48:42.915Z,27.70
2017-08-29T11:51:09.223Z,27.90
2017-08-29T11:53:35.567Z,27.90
2017-08-29T11:56:01.916Z,27.90
2017-08-29T11:58:28.209Z,27.90
2017-08-29T12:00:54.540Z,28.00
2017-08-29T12:03:20.858Z,28.00
2017-08-29T12:05:47.187Z,28.00
2017-08-29T12:08:13.536Z,28.10
2017-08-29T12:10:39.979Z,28.10
2017-08-29T12:13:06.300Z,28.20
2017-08-29T12:15:32.588Z,28.20
2017-08-29T12:17:58.857Z,28.30
2017-08-29T12:20:25.189Z,28.40
2017-08-29T12:22:51.491Z,28.30
2017-08-29T12:25:17.855Z,28.30
2017-08-29T12:27:44.140Z,28.40
2017-08-29T12:30:10.420Z,28.40
2017-08-29T12:32:36.716Z,28.30
2017-08-29T12:35:03.003Z,28.30
2017-08-29T12:37:29.323Z,28.40
2017-08-29T12:39:55.604Z,28.50
2017-08-29T12:42:21.934Z,28.40
2017-08-29T12:44:48.244Z,28.40
2017-08-29T12:47:14.542Z,28.30
2017-08-29T12:49:40.819Z,28.30
2017-08-29T12:52:07.144Z,28.30
2017-08-29T12:54:33.432Z,28.40
2017-08-29T12:56:59.753Z,28.40
2017-08-29T12:59:26.059Z,28.40
2017-08-29T13:01:52.387Z,28.40
2017-08-29T13:04:19.564Z,28.50
2017-08-29T13:06:45.879Z,28.50
2017-08-29T13:09:12.207Z,28.50
2017-08-29T13:11:38.527Z,28.60
2017-08-29T13:14:04.912Z,28.70
2017-08-29T13:16:31.199Z,28.70
2017-08-29T13:18:57.520Z,28.80
2017-08-29T13:21:23.851Z,28.70
2017-08-29T13:23:50.187Z,28.60
2017-08-29T13:26:16.472Z,28.50
2017-08-29T13:28:42.767Z,28.70
2017-08-29T13:31:09.057Z,28.70
2017-08-29T13:33:35.364Z,28.70
2017-08-29T13:36:01.693Z,28.70
2017-08-29T13:38:27.992Z,28.60
2017-08-29T13:40:54.316Z,28.50
2017-08-29T13:43:20.648Z,28.50
2017-08-29T13:45:46.957Z,28.50
2017-08-29T13:48:13.329Z,28.70
2017-08-29T13:50:39.652Z,28.70
2017-08-29T13:53:06.743Z,28.80
2017-08-29T13:55:33.073Z,28.80
2017-08-29T13:57:59.372Z,28.80
2017-08-29T14:00:25.694Z,28.80
2017-08-29T14:02:52.029Z,28.70
2017-08-29T14:05:18.363Z,28.80
2017-08-29T14:07:44.651Z,28.70
2017-08-29T14:10:11.003Z,28.70
2017-08-29T14:12:37.302Z,28.70
2017-08-29T14:15:03.635Z,28.60
2017-08-29T14:17:29.948Z,28.60
2017-08-29T14:19:56.240Z,28.70
2017-08-29T14:22:22.559Z,28.70
2017-08-29T14:24:48.864Z,28.70
2017-08-29T14:27:15.144Z,28.70
2017-08-29T14:29:41.473Z,28.60
2017-08-29T14:32:07.780Z,28.60
2017-08-29T14:34:34.299Z,28.60
2017-08-29T14:37:00.568Z,28.60
2017-08-29T14:39:26.861Z,28.60
2017-08-29T14:41:53.153Z,28.70
2017-08-29T14:44:19.568Z,28.70
2017-08-29T14:46:58.043Z,28.70
2017-08-29T14:49:24.345Z,28.70
2017-08-29T14:51:50.676Z,28.60
2017-08-29T14:54:17.125Z,28.80
2017-08-29T14:56:43.595Z,28.90
2017-08-29T14:59:10.049Z,28.90
2017-08-29T15:01:36.348Z,29.00
2017-08-29T15:04:02.651Z,28.90
2017-08-29T15:06:28.959Z,28.90
2017-08-29T15:08:55.419Z,28.80
2017-08-29T15:11:21.724Z,28.70
2017-08-29T15:13:48.065Z,28.70
2017-08-29T15:16:14.371Z,28.60
2017-08-29T15:18:40.875Z,28.60
2017-08-29T15:21:07.355Z,28.60
2017-08-29T15:23:33.684Z,28.80
2017-08-29T15:26:00.016Z,28.70
2017-08-29T15:28:26.403Z,28.70
2017-08-29T15:30:52.700Z,28.60
2017-08-29T15:33:19.007Z,28.70
2017-08-29T15:35:45.396Z,28.60
2017-08-29T15:38:11.756Z,28.60
2017-08-29T15:40:38.115Z,28.60
2017-08-29T15:43:04.413Z,28.50
2017-08-29T15:45:30.727Z,28.50
2017-08-29T15:47:57.051Z,28.50
2017-08-29T15:50:23.387Z,28.40
2017-08-29T15:52:49.671Z,28.60
2017-08-29T15:55:16.003Z,28.50
2017-08-29T15:57:42.288Z,28.40
2017-08-29T16:00:08.565Z,28.40
2017-08-29T16:02:34.981Z,28.30
2017-08-29T16:05:01.468Z,28.30
2017-08-29T16:07:27.797Z,28.30
2017-08-29T16:09:54.121Z,28.30
2017-08-29T16:12:20.399Z,28.30
2017-08-29T16:14:46.752Z,28.30
2017-08-29T16:17:13.773Z,28.30
2017-08-29T16:19:40.106Z,28.30
2017-08-29T16:22:06.401Z,28.20
2017-08-29T16:24:32.720Z,28.10
2017-08-29T16:26:59.214Z,28.10
2017-08-29T16:29:25.549Z,28.10
2017-08-29T16:31:51.916Z,28.20
2017-08-29T16:34:18.256Z,28.20
2017-08-29T16:36:44.629Z,28.20
2017-08-29T16:39:10.932Z,28.00
2017-08-29T16:41:37.230Z,28.00
2017-08-29T16:44:03.685Z,27.90
2017-08-29T16:46:29.981Z,27.80
2017-08-29T16:48:56.260Z,27.70
2017-08-29T16:51:22.584Z,27.50
2017-08-29T16:53:48.883Z,27.40
2017-08-29T16:56:15.200Z,27.40
2017-08-29T16:58:41.512Z,27.40
2017-08-29T17:01:07.810Z,27.30
2017-08-29T17:03:34.120Z,27.20
2017-08-29T17:06:00.447Z,27.20
2017-08-29T17:08:26.791Z,27.10
2017-08-29T17:10:53.113Z,27.00
2017-08-29T17:13:19.443Z,27.10
2017-08-29T17:15:45.768Z,27.10
2017-08-29T17:18:12.048Z,26.90
2017-08-29T17:20:38.433Z,27.00
2017-08-29T17:23:04.749Z,26.80
2017-08-29T17:25:31.112Z,26.70
2017-08-29T17:27:57.428Z,26.60
2017-08-29T17:30:23.916Z,26.60
2017-08-29T17:32:50.248Z,26.50
2017-08-29T17:35:16.564Z,26.50
2017-08-29T17:37:42.876Z,26.40
2017-08-29T17:40:09.192Z,26.20
2017-08-29T17:42:35.552Z,26.20
2017-08-29T17:45:01.870Z,26.10
2017-08-29T17:47:28.168Z,26.00
2017-08-29T17:49:54.487Z,25.80
2017-08-29T17:52:20.813Z,25.70
2017-08-29T17:54:47.140Z,25.60
2017-08-29T17:57:13.449Z,25.50
2017-08-29T17:59:39.789Z,25.40
2017-08-29T18:02:06.101Z,25.30
2017-08-29T18:04:32.421Z,25.10
2017-08-29T18:06:58.717Z,25.00
2017-08-29T18:09:25.016Z,25.00
2017-08-29T18:11:51.391Z,24.80
2017-08-29T18:14:17.664Z,24.60
2017-08-29T18:16:44.476Z,24.50
2017-08-29T18:19:10.791Z,24.40
2017-08-29T18:21:37.146Z,24.40
2017-08-29T18:24:03.481Z,24.30
2017-08-29T18:26:29.808Z,24.20
2017-08-29T18:28:56.155Z,24.10
2017-08-29T18:31:22.433Z,24.00
2017-08-29T18:33:48.750Z,23.90
2017-08-29T18:36:15.181Z,23.80
2017-08-29T18:38:41.449Z,23.70
2017-08-29T18:41:07.777Z,23.70
2017-08-29T18:43:34.104Z,23.60
2017-08-29T18:46:00.488Z,23.50
2017-08-29T18:48:26.805Z,23.50
2017-08-29T18:50:53.181Z,23.40
2017-08-29T18:53:19.698Z,23.40
2017-08-29T18:55:46.009Z,23.30
2017-08-29T18:58:12.374Z,23.40
2017-08-29T19:00:38.668Z,23.40
2017-08-29T19:03:05.011Z,23.50
2017-08-29T19:05:31.393Z,23.40
2017-08-29T19:07:57.828Z,23.30
2017-08-29T19:10:24.220Z,23.30
2017-08-29T19:12:50.547Z,23.30
2017-08-29T19:15:16.904Z,23.30
2017-08-29T19:17:43.225Z,23.20
2017-08-29T19:20:09.565Z,23.20
2017-08-29T19:22:35.909Z,23.20
2017-08-29T19:25:02.245Z,23.30
2017-08-29T19:27:28.577Z,23.40
2017-08-29T19:29:54.963Z,23.40
2017-08-29T19:32:21.381Z,23.40
2017-08-29T19:34:47.892Z,23.40
2017-08-29T19:37:14.243Z,23.50
2017-08-29T19:39:40.581Z,23.40
2017-08-29T19:42:06.900Z,23.40
2017-08-29T19:44:33.272Z,23.40
2017-08-29T19:46:59.603Z,23.30
2017-08-29T19:49:26.041Z,23.20
2017-08-29T19:51:52.422Z,23.10
2017-08-29T19:54:18.738Z,23.10
2017-08-29T19:56:45.086Z,23.00
2017-08-29T19:59:11.373Z,23.00
2017-08-29T20:01:37.680Z,23.00
2017-08-29T20:04:04.050Z,23.00
2017-08-29T20:06:30.415Z,22.90
2017-08-29T20:08:56.799Z,22.80
2017-08-29T20:11:23.133Z,22.80
2017-08-29T20:13:49.521Z,22.70
2017-08-29T20:16:15.914Z,22.60
2017-08-29T20:18:42.268Z,22.60
2017-08-29T20:21:08.628Z,22.50
2017-08-29T20:23:34.871Z,22.50
2017-08-29T20:26:01.239Z,22.40
2017-08-29T20:28:27.605Z,22.40
2017-08-29T20:30:53.955Z,22.40
2017-08-29T20:33:20.355Z,22.30
2017-08-29T20:35:46.734Z,22.30
2017-08-29T20:38:13.032Z,22.30
2017-08-29T20:40:39.367Z,22.30
2017-08-29T20:43:05.707Z,22.30
2017-08-29T20:45:32.060Z,22.20
2017-08-29T20:47:58.387Z,22.20
2017-08-29T20:50:24.677Z,22.10
2017-08-29T20:52:51.024Z,22.00
2017-08-29T20:55:17.529Z,22.00
2017-08-29T20:57:43.904Z,21.90
2017-08-29T21:00:10.224Z,21.90
2017-08-29T21:02:36.545Z,21.90
2017-08-29T21:05:02.881Z,21.90
2017-08-29T21:07:29.205Z,21.80
2017-08-29T21:09:55.580Z,21.80
2017-08-29T21:12:21.876Z,21.80
2017-08-29T21:14:48.216Z,21.70
2017-08-29T21:17:14.536Z,21.70
2017-08-29T21:19:47.755Z,21.60
2017-08-29T21:22:14.076Z,21.60
2017-08-29T21:24:40.373Z,21.50
2017-08-29T21:27:06.714Z,21.50
2017-08-29T21:29:33.016Z,21.40
2017-08-29T21:31:59.340Z,21.40
2017-08-29T21:34:25.867Z,21.30
2017-08-29T21:36:52.208Z,21.30
2017-08-29T21:39:18.496Z,21.20
2017-08-29T21:41:45.531Z,21.20
2017-08-29T21:44:11.865Z,21.10
2017-08-29T21:46:38.159Z,21.20
2017-08-29T21:49:04.471Z,21.20
2017-08-29T21:51:30.784Z,21.10
2017-08-29T21:53:57.116Z,21.10
2017-08-29T21:56:23.589Z,21.10
2017-08-29T21:58:49.929Z,21.00
2017-08-29T22:01:16.211Z,21.00
2017-08-29T22:03:42.513Z,20.90
2017-08-29T22:06:08.817Z,20.90
2017-08-29T22:08:35.160Z,20.80
2017-08-29T22:11:01.503Z,20.80
2017-08-29T22:13:27.845Z,20.80
2017-08-29T22:15:54.182Z,20.70
2017-08-29T22:18:20.493Z,20.70
2017-08-29T22:20:46.841Z,20.70
2017-08-29T22:23:13.131Z,20.70
2017-08-29T22:25:39.436Z,20.70
2017-08-29T22:28:05.772Z,20.70
2017-08-29T22:30:32.093Z,20.70
2017-08-29T22:32:58.459Z,20.70
2017-08-29T22:35:24.796Z,20.70
2017-08-29T22:37:51.123Z,20.60
2017-08-29T22:40:17.440Z,20.60
2017-08-29T22:42:43.743Z,20.50
2017-08-29T22:45:10.044Z,20.50
2017-08-29T22:47:36.331Z,20.40
2017-08-29T22:50:02.645Z,20.40
2017-08-29T22:52:28.963Z,20.40
2017-08-29T22:54:55.260Z,20.40
2017-08-29T22:57:21.701Z,20.40
2017-08-29T22:59:48.008Z,20.40
2017-08-29T23:02:14.299Z,20.40
2017-08-29T23:04:40.809Z,20.40
2017-08-29T23:07:07.153Z,20.30
2017-08-29T23:09:33.495Z,20.30
2017-08-29T23:11:59.840Z,20.30
2017-08-29T23:14:26.165Z,20.20
2017-08-29T23:16:52.436Z,20.20
2017-08-29T23:19:18.734Z,20.10
2017-08-29T23:21:45.035Z,20.10
2017-08-29T23:24:11.334Z,20.00
2017-08-29T23:26:37.672Z,20.00
2017-08-29T23:29:04.081Z,19.90
2017-08-29T23:31:30.417Z,19.90
2017-08-29T23:33:56.704Z,19.90
2017-08-29T23:36:23.004Z,19.80
2017-08-29T23:38:49.356Z,19.80
2017-08-29T23:41:15.625Z,19.80
2017-08-29T23:43:41.980Z,19.80
2017-08-29T23:46:08.271Z,19.80
2017-08-29T23:48:34.583Z,19.70
2017-08-29T23:51:00.871Z,19.70
2017-08-29T23:53:27.171Z,19.70
2017-08-29T23:55:53.484Z,19.70
2017-08-29T23:58:19.740Z,19.70
